Ventura — ZCDT2 — position and weather

sailwx.info

Track history (hours):
 
Tides and Currents Weather Stations Pressure Air Temp Water Temp Dewpoint Dewpoint Depression Visibility Wind Speed Wind Dir Waves Ship Positions

Ventura

Last reported at 2015-Apr-19 21:26 UTC. Time now 2015-Apr-19 23:01 UTC.
Position N 37°03' W 001°15'.

Length 288 m; draft 8.6 m.

Type: Passenger vessel. MMSI: 310562000.

Date/timePositionNaut miles runAvg speedWind from/ knotsBaromVisibWave heightAir tempDewpointWater temp
2015-Apr-19 21:26N 37°03' W 001°15'1820.4
2015-Apr-19 20:33N 37°16' W 000°59'2120.7
2015-Apr-19 19:33N 37°30' W 000°40'1919.0
2015-Apr-19 18:33N 37°47' W 000°29'2019.6
2015-Apr-19 17:33N 38°06' W 000°23'1414.4
2015-Apr-19 16:33N 38°19' W 000°29'0 0.0
2015-Apr-19 05:15N 38°19' W 000°29'5 7.5
2015-Apr-19 04:33N 38°19' W 000°23'1212.3
2015-Apr-19 03:33N 38°23' W 000°08'1712.8
2015-Apr-19 02:15N 38°33' E 000°09'1112.5
2015-Apr-19 01:21N 38°40' E 000°20'1012.0
2015-Apr-19 00:33N 38°49' E 000°23'1612.8
2015-Apr-18 23:17N 39°05' E 000°17'3412.5
2015-Apr-18 20:31N 39°26' W 000°18'2 1.7
2015-Apr-18 19:33N 39°27' W 000°19'0 0.0
2015-Apr-18 18:33N 39°27' W 000°19'0 0.0
2015-Apr-18 17:33N 39°27' W 000°19'0 0.0
2015-Apr-18 16:34N 39°27' W 000°19'0 0.0
2015-Apr-18 15:33N 39°27' W 000°19'0 0.0
2015-Apr-18 14:33N 39°27' W 000°19'0 0.0
2015-Apr-18 13:34N 39°27' W 000°19'0 0.0
2015-Apr-18 12:33N 39°27' W 000°19'0 0.0
2015-Apr-18 11:34N 39°27' W 000°19'0 0.0
2015-Apr-18 10:34N 39°27' W 000°19'0 0.0
2015-Apr-18 09:33N 39°27' W 000°19'0 0.0
2015-Apr-18 08:33N 39°27' W 000°19'0 0.0
2015-Apr-18 07:33N 39°27' W 000°19'0 0.0
2015-Apr-18 06:33N 39°27' W 000°19'0 0.2
2015-Apr-18 05:33N 39°27' W 000°19'5 4.5
2015-Apr-18 04:34N 39°24' W 000°15'5312.7
2015-Apr-18 00:25N 38°44' E 000°29'1113.0
2015-Apr-17 23:32N 38°34' E 000°21'1413.1
2015-Apr-17 22:30N 38°23' E 000°12'1212.8
2015-Apr-17 21:33N 38°13' E 000°03'1312.9
2015-Apr-17 20:33N 38°02' W 000°06'1312.9
2015-Apr-17 19:33N 37°51' W 000°15'1313.0
2015-Apr-17 18:33N 37°40' W 000°25'1313.0
2015-Apr-17 17:33N 37°30' W 000°35'1313.0
2015-Apr-17 16:33N 37°22' W 000°47'1313.0
2015-Apr-17 15:33N 37°13' W 000°59'1312.9
2015-Apr-17 14:33N 37°04' W 001°12'1513.0
2015-Apr-17 13:22N 36°54' W 001°26'9512.9
2015-Apr-17 06:00N 36°12' W 003°12'9412.6 260 / 121018.810.8 1.017.013.515.7
2015-Apr-16 22:33N 36°06' W 005°08'1212.4
2015-Apr-16 21:33N 36°06' W 005°23'3 0.2
2015-Apr-16 06:28N 36°09' W 005°22'8 8.7
2015-Apr-16 05:33N 36°01' W 005°22'3517.1
2015-Apr-16 03:32N 35°53' W 006°03'13023.5
2015-Apr-15 22:00N 37°18' W 008°06'6425.1 220 / 71017.010.8 1.519.311.716.5
2015-Apr-15 19:27N 36°30' W 008°58'6716.8
2015-Apr-15 15:29N 37°25' W 009°44'1718.2
2015-Apr-15 14:33N 37°42' W 009°49'1817.8
2015-Apr-15 13:33N 37°59' W 009°53'1817.6
2015-Apr-15 12:33N 38°16' W 009°58'1817.8
2015-Apr-15 11:33N 38°34' W 010°04'1817.9
2015-Apr-15 10:33N 38°51' W 010°06'1918.1
2015-Apr-15 09:32N 39°10' W 010°06'1818.1
2015-Apr-15 08:33N 39°28' W 010°06'20019.0
2015-Apr-14 22:00N 42°48' W 010°06'329 9.8 340 / 81015.310.8 2.518.311.414.0
2015-Apr-13 12:30N 47°29' W 006°05'1515.6
2015-Apr-13 11:33N 47°43' W 005°56'1615.6
2015-Apr-13 10:33N 47°57' W 005°47'1615.6
2015-Apr-13 09:33N 48°12' W 005°38'1615.6
2015-Apr-13 08:32N 48°26' W 005°29'1312.9
2015-Apr-13 07:32N 48°36' W 005°17'1615.3
2015-Apr-13 06:28N 48°48' W 004°59'3515.3
2015-Apr-13 04:09N 49°11' W 004°18'1215.4
2015-Apr-13 03:22N 49°18' W 004°03'6315.4
2015-Apr-12 23:17N 49°59' W 002°50'1715.2
2015-Apr-12 22:12N 50°06' W 002°26'1614.9
2015-Apr-12 21:06N 50°14' W 002°04'815.2
2015-Apr-12 20:34N 50°17' W 001°52'1915.3
2015-Apr-12 19:20N 50°25' W 001°26'1216.0
2015-Apr-12 18:34N 50°31' W 001°08'1313.2
2015-Apr-12 17:33N 50°43' W 000°59'1312.8
2015-Apr-12 16:34N 50°48' W 001°18'7 6.3
2015-Apr-12 15:30N 50°53' W 001°24'0 0.0
2015-Apr-12 14:30N 50°53' W 001°24'0 0.0
2015-Apr-12 13:24N 50°53' W 001°24'0 0.0
2015-Apr-12 12:30N 50°53' W 001°24'0 0.0
2015-Apr-12 11:33N 50°53' W 001°24'0 0.0
2015-Apr-12 10:33N 50°53' W 001°24'0 0.0
2015-Apr-12 09:33N 50°53' W 001°24'0 0.0
2015-Apr-12 08:33N 50°53' W 001°24'0 0.0
2015-Apr-12 07:33N 50°53' W 001°24'0 0.0
2015-Apr-12 06:33N 50°53' W 001°24'0 0.3
2015-Apr-12 05:34N 50°53' W 001°24'7 7.5
2015-Apr-12 04:34N 50°47' W 001°19'1111.5
2015-Apr-12 03:33N 50°43' W 001°01'1212.2
2015-Apr-12 02:33N 50°37' W 000°45'1818.2
2015-Apr-12 01:33N 50°33' W 000°17'1818.4
2015-Apr-12 00:34N 50°35' E 000°12'1918.6
2015-Apr-11 23:33N 50°41' E 000°40'2220.3
2015-Apr-11 22:27N 50°54' E 001°08'1920.9
2015-Apr-11 21:33N 51°06' E 001°31'2019.9
2015-Apr-11 20:34N 51°20' E 001°53'1616.3
2015-Apr-11 19:33N 51°20' E 002°19'1817.6
2015-Apr-11 18:34N 51°24' E 002°47'1414.4
2015-Apr-11 17:34N 51°23' E 003°10'3 2.8
2015-Apr-11 16:32N 51°20' E 003°12'0 0.0
2015-Apr-11 15:32N 51°20' E 003°12'0 0.0
2015-Apr-11 14:32N 51°20' E 003°12'0 0.0
2015-Apr-11 13:32N 51°20' E 003°12'0 0.0
2015-Apr-11 12:32N 51°20' E 003°12'0 0.0
2015-Apr-11 11:32N 51°20' E 003°12'0 0.0
2015-Apr-11 10:32N 51°20' E 003°12'0 0.0
2015-Apr-11 09:32N 51°20' E 003°12'0 0.0
2015-Apr-11 08:32N 51°20' E 003°12'0 0.0
2015-Apr-11 07:32N 51°20' E 003°12'0 0.2
2015-Apr-11 06:34N 51°21' E 003°12'8 7.6
2015-Apr-11 05:33N 51°24' E 003°02'1413.7
2015-Apr-11 04:34N 51°22' E 002°40'1414.4
2015-Apr-11 03:34N 51°18' E 002°18'1515.3
2015-Apr-11 02:33N 51°10' E 001°57'1515.3
2015-Apr-11 01:34N 51°01' E 001°38'1515.2
2015-Apr-11 00:34N 50°48' E 001°25'1515.2
2015-Apr-10 23:34N 50°37' E 001°09'1615.6
2015-Apr-10 22:33N 50°29' E 000°48'1616.4
2015-Apr-10 21:33N 50°25' E 000°23'1816.8
2015-Apr-10 20:28N 50°22' W 000°06'1517.0
2015-Apr-10 19:34N 50°28' W 000°28'1615.8
2015-Apr-10 18:34N 50°36' W 000°50'1313.3
2015-Apr-10 17:33N 50°45' W 001°05'1010.1
2015-Apr-10 16:33N 50°50' W 001°19'5 4.7
2015-Apr-10 15:33N 50°53' W 001°24'0 0.0
2015-Apr-10 14:33N 50°53' W 001°24'0 0.0
2015-Apr-10 13:33N 50°53' W 001°24'0 0.0
2015-Apr-10 12:33N 50°53' W 001°24'0 0.0
2015-Apr-10 11:33N 50°53' W 001°24'0 0.0
2015-Apr-10 10:33N 50°53' W 001°24'0 0.0
2015-Apr-10 09:33N 50°53' W 001°24'0 0.0
2015-Apr-10 08:33N 50°53' W 001°24'0 0.0
2015-Apr-10 07:33N 50°53' W 001°24'0 0.0
2015-Apr-10 06:30N 50°53' W 001°24'0 0.0
2015-Apr-10 05:33N 50°53' W 001°24'1 0.8
2015-Apr-10 04:33N 50°53' W 001°23'8 8.4
2015-Apr-10 03:34N 50°46' W 001°15'1312.9
2015-Apr-10 02:33N 50°39' W 000°58'1414.5
2015-Apr-10 01:34N 50°30' W 001°16'1616.1
2015-Apr-10 00:33N 50°24' W 001°39'1717.0
2015-Apr-09 23:33N 50°17' W 002°04'1918.9
2015-Apr-09 22:34N 50°01' W 002°18'1818.3
2015-Apr-09 21:34N 49°53' W 002°44'  
Track history (hours):
 
Tides and Currents Weather Stations Pressure Air Temp Water Temp Dewpoint Dewpoint Depression Visibility Wind Speed Wind Dir Waves Ship Positions

Ventura

Last reported at 2015-Apr-19 21:26 UTC. Time now 2015-Apr-19 23:01 UTC.
Position N 37°03' W 001°15'.

Length 288 m; draft 8.6 m.

Type: Passenger vessel. MMSI: 310562000.

Date/timePositionNaut miles runAvg speedWind from/ knotsBaromVisibWave heightAir tempDewpointWater temp
2015-Apr-19 21:26N 37°03' W 001°15'1820.4
2015-Apr-19 20:33N 37°16' W 000°59'2120.7
2015-Apr-19 19:33N 37°30' W 000°40'1919.0
2015-Apr-19 18:33N 37°47' W 000°29'2019.6
2015-Apr-19 17:33N 38°06' W 000°23'1414.4
2015-Apr-19 16:33N 38°19' W 000°29'0 0.0
2015-Apr-19 05:15N 38°19' W 000°29'5 7.5
2015-Apr-19 04:33N 38°19' W 000°23'1212.3
2015-Apr-19 03:33N 38°23' W 000°08'1712.8
2015-Apr-19 02:15N 38°33' E 000°09'1112.5
2015-Apr-19 01:21N 38°40' E 000°20'1012.0
2015-Apr-19 00:33N 38°49' E 000°23'1612.8
2015-Apr-18 23:17N 39°05' E 000°17'3412.5
2015-Apr-18 20:31N 39°26' W 000°18'2 1.7
2015-Apr-18 19:33N 39°27' W 000°19'0 0.0
2015-Apr-18 18:33N 39°27' W 000°19'0 0.0
2015-Apr-18 17:33N 39°27' W 000°19'0 0.0
2015-Apr-18 16:34N 39°27' W 000°19'0 0.0
2015-Apr-18 15:33N 39°27' W 000°19'0 0.0
2015-Apr-18 14:33N 39°27' W 000°19'0 0.0
2015-Apr-18 13:34N 39°27' W 000°19'0 0.0
2015-Apr-18 12:33N 39°27' W 000°19'0 0.0
2015-Apr-18 11:34N 39°27' W 000°19'0 0.0
2015-Apr-18 10:34N 39°27' W 000°19'0 0.0
2015-Apr-18 09:33N 39°27' W 000°19'0 0.0
2015-Apr-18 08:33N 39°27' W 000°19'0 0.0
2015-Apr-18 07:33N 39°27' W 000°19'0 0.0
2015-Apr-18 06:33N 39°27' W 000°19'0 0.2
2015-Apr-18 05:33N 39°27' W 000°19'5 4.5
2015-Apr-18 04:34N 39°24' W 000°15'5312.7
2015-Apr-18 00:25N 38°44' E 000°29'1113.0
2015-Apr-17 23:32N 38°34' E 000°21'1413.1
2015-Apr-17 22:30N 38°23' E 000°12'1212.8
2015-Apr-17 21:33N 38°13' E 000°03'1312.9
2015-Apr-17 20:33N 38°02' W 000°06'1312.9
2015-Apr-17 19:33N 37°51' W 000°15'1313.0
2015-Apr-17 18:33N 37°40' W 000°25'1313.0
2015-Apr-17 17:33N 37°30' W 000°35'1313.0
2015-Apr-17 16:33N 37°22' W 000°47'1313.0
2015-Apr-17 15:33N 37°13' W 000°59'1312.9
2015-Apr-17 14:33N 37°04' W 001°12'1513.0
2015-Apr-17 13:22N 36°54' W 001°26'9512.9
2015-Apr-17 06:00N 36°12' W 003°12'9412.6 260 / 121018.810.8 1.017.013.515.7
2015-Apr-16 22:33N 36°06' W 005°08'1212.4
2015-Apr-16 21:33N 36°06' W 005°23'3 0.2
2015-Apr-16 06:28N 36°09' W 005°22'8 8.7
2015-Apr-16 05:33N 36°01' W 005°22'3517.1
2015-Apr-16 03:32N 35°53' W 006°03'13023.5
2015-Apr-15 22:00N 37°18' W 008°06'6425.1 220 / 71017.010.8 1.519.311.716.5
2015-Apr-15 19:27N 36°30' W 008°58'6716.8
2015-Apr-15 15:29N 37°25' W 009°44'1718.2
2015-Apr-15 14:33N 37°42' W 009°49'1817.8
2015-Apr-15 13:33N 37°59' W 009°53'1817.6
2015-Apr-15 12:33N 38°16' W 009°58'1817.8
2015-Apr-15 11:33N 38°34' W 010°04'1817.9
2015-Apr-15 10:33N 38°51' W 010°06'1918.1
2015-Apr-15 09:32N 39°10' W 010°06'1818.1
2015-Apr-15 08:33N 39°28' W 010°06'20019.0
2015-Apr-14 22:00N 42°48' W 010°06'329 9.8 340 / 81015.310.8 2.518.311.414.0
2015-Apr-13 12:30N 47°29' W 006°05'1515.6
2015-Apr-13 11:33N 47°43' W 005°56'1615.6
2015-Apr-13 10:33N 47°57' W 005°47'1615.6
2015-Apr-13 09:33N 48°12' W 005°38'1615.6
2015-Apr-13 08:32N 48°26' W 005°29'1312.9
2015-Apr-13 07:32N 48°36' W 005°17'1615.3
2015-Apr-13 06:28N 48°48' W 004°59'3515.3
2015-Apr-13 04:09N 49°11' W 004°18'1215.4
2015-Apr-13 03:22N 49°18' W 004°03'6315.4
2015-Apr-12 23:17N 49°59' W 002°50'1715.2
2015-Apr-12 22:12N 50°06' W 002°26'1614.9
2015-Apr-12 21:06N 50°14' W 002°04'815.2
2015-Apr-12 20:34N 50°17' W 001°52'1915.3
2015-Apr-12 19:20N 50°25' W 001°26'1216.0
2015-Apr-12 18:34N 50°31' W 001°08'1313.2
2015-Apr-12 17:33N 50°43' W 000°59'1312.8
2015-Apr-12 16:34N 50°48' W 001°18'7 6.3
2015-Apr-12 15:30N 50°53' W 001°24'0 0.0
2015-Apr-12 14:30N 50°53' W 001°24'0 0.0
2015-Apr-12 13:24N 50°53' W 001°24'0 0.0
2015-Apr-12 12:30N 50°53' W 001°24'0 0.0
2015-Apr-12 11:33N 50°53' W 001°24'0 0.0
2015-Apr-12 10:33N 50°53' W 001°24'0 0.0
2015-Apr-12 09:33N 50°53' W 001°24'0 0.0
2015-Apr-12 08:33N 50°53' W 001°24'0 0.0
2015-Apr-12 07:33N 50°53' W 001°24'0 0.0
2015-Apr-12 06:33N 50°53' W 001°24'0 0.3
2015-Apr-12 05:34N 50°53' W 001°24'7 7.5
2015-Apr-12 04:34N 50°47' W 001°19'1111.5
2015-Apr-12 03:33N 50°43' W 001°01'1212.2
2015-Apr-12 02:33N 50°37' W 000°45'1818.2
2015-Apr-12 01:33N 50°33' W 000°17'1818.4
2015-Apr-12 00:34N 50°35' E 000°12'1918.6
2015-Apr-11 23:33N 50°41' E 000°40'2220.3
2015-Apr-11 22:27N 50°54' E 001°08'1920.9
2015-Apr-11 21:33N 51°06' E 001°31'2019.9
2015-Apr-11 20:34N 51°20' E 001°53'1616.3
2015-Apr-11 19:33N 51°20' E 002°19'1817.6
2015-Apr-11 18:34N 51°24' E 002°47'1414.4
2015-Apr-11 17:34N 51°23' E 003°10'3 2.8
2015-Apr-11 16:32N 51°20' E 003°12'0 0.0
2015-Apr-11 15:32N 51°20' E 003°12'0 0.0
2015-Apr-11 14:32N 51°20' E 003°12'0 0.0
2015-Apr-11 13:32N 51°20' E 003°12'0 0.0
2015-Apr-11 12:32N 51°20' E 003°12'0 0.0
2015-Apr-11 11:32N 51°20' E 003°12'0 0.0
2015-Apr-11 10:32N 51°20' E 003°12'0 0.0
2015-Apr-11 09:32N 51°20' E 003°12'0 0.0
2015-Apr-11 08:32N 51°20' E 003°12'0 0.0
2015-Apr-11 07:32N 51°20' E 003°12'0 0.2
2015-Apr-11 06:34N 51°21' E 003°12'8 7.6
2015-Apr-11 05:33N 51°24' E 003°02'1413.7
2015-Apr-11 04:34N 51°22' E 002°40'1414.4
2015-Apr-11 03:34N 51°18' E 002°18'1515.3
2015-Apr-11 02:33N 51°10' E 001°57'1515.3
2015-Apr-11 01:34N 51°01' E 001°38'1515.2
2015-Apr-11 00:34N 50°48' E 001°25'1515.2
2015-Apr-10 23:34N 50°37' E 001°09'1615.6
2015-Apr-10 22:33N 50°29' E 000°48'1616.4
2015-Apr-10 21:33N 50°25' E 000°23'1816.8
2015-Apr-10 20:28N 50°22' W 000°06'1517.0
2015-Apr-10 19:34N 50°28' W 000°28'1615.8
2015-Apr-10 18:34N 50°36' W 000°50'1313.3
2015-Apr-10 17:33N 50°45' W 001°05'1010.1
2015-Apr-10 16:33N 50°50' W 001°19'5 4.7
2015-Apr-10 15:33N 50°53' W 001°24'0 0.0
2015-Apr-10 14:33N 50°53' W 001°24'0 0.0
2015-Apr-10 13:33N 50°53' W 001°24'0 0.0
2015-Apr-10 12:33N 50°53' W 001°24'0 0.0
2015-Apr-10 11:33N 50°53' W 001°24'0 0.0
2015-Apr-10 10:33N 50°53' W 001°24'0 0.0
2015-Apr-10 09:33N 50°53' W 001°24'0 0.0
2015-Apr-10 08:33N 50°53' W 001°24'0 0.0
2015-Apr-10 07:33N 50°53' W 001°24'0 0.0
2015-Apr-10 06:30N 50°53' W 001°24'0 0.0
2015-Apr-10 05:33N 50°53' W 001°24'1 0.8
2015-Apr-10 04:33N 50°53' W 001°23'8 8.4
2015-Apr-10 03:34N 50°46' W 001°15'1312.9
2015-Apr-10 02:33N 50°39' W 000°58'1414.5
2015-Apr-10 01:34N 50°30' W 001°16'1616.1
2015-Apr-10 00:33N 50°24' W 001°39'1717.0
2015-Apr-09 23:33N 50°17' W 002°04'1918.9
2015-Apr-09 22:34N 50°01' W 002°18'1818.3
2015-Apr-09 21:34N 49°53' W 002°44'  

Dump ship's entire track history